METAR AND TAF INFORMATION
METAR FOR LEVX
ADDS - METARS form results

(1751 UTC 15 January 2021)
Data provider http://aviationweather.gov/metar/data/
 
METAR text: LEVX 151730Z 20004KT 170V250 CAVOK 09/06 Q1029 NOSIG
Conditions at: LEVX (VIGO/PEINADOR , ES) observed 1730 UTC 15 January 2021
Temperature: 9.0°C (48°F)
Dewpoint: 6.0°C (43°F) [RH = 81%]
Pressure (altimeter): 30.38 inches Hg (1029.0 mb)
Winds: from the SSW (200 degrees) at 5 MPH (4 knots; 2.1 m/s)
Visibility: 6 or more miles (10+ km)
Ceiling: ceiling and visibility are OK
Clouds: unknown
Weather: no significant weather observed at this time

METAR text: LEVX 151700Z 26005KT 220V280 CAVOK 11/07 Q1029 NOSIG
Conditions at: LEVX (VIGO/PEINADOR , ES) observed 1700 UTC 15 January 2021
Temperature: 11.0°C (52°F)
Dewpoint: 7.0°C (45°F) [RH = 76%]
Pressure (altimeter): 30.38 inches Hg (1029.0 mb)
Winds: from the W (260 degrees) at 6 MPH (5 knots; 2.6 m/s)
Visibility: 6 or more miles (10+ km)
Ceiling: ceiling and visibility are OK
Clouds: unknown
Weather: no significant weather observed at this time

Forecast for: LEVX (VIGO/PEINADOR , ES)
Text: TAF LEVX 151700Z 1518/1618 VRB05KT 9999 FEW020 TX12/1615Z TN04/1606Z
Forecast period: 1800 UTC 15 January 2021 to 1800 UTC 16 January 2021
Forecast type: FROM: standard forecast or significant change
Winds: variable direction winds at 6 MPH (5 knots; 2.6 m/s)
Visibility: 6 or more miles (10+ km)
Ceiling: at least 12,000 feet AGL
Clouds: few clouds at 2000 feet AGL
Weather: no significant weather forecast for this period
Text: PROB40
Forecast period: 0100 to 0900 UTC 16 January 2021
Forecast type: TEMPORARY: The following changes expected for less than half the time period
Visibility: 1.86 miles (2.99 km)
Ceiling: unknown
Clouds: missing
Weather: BR BCFG  (mist, patches of fog)
Text: TEMPO 1601/1609 3000 BR BCFG
Forecast period: 0200 to 0800 UTC 16 January 2021
Forecast type: TEMPORARY: The following changes expected for less than half the time period
Visibility: 0.50 miles (0.80 km)
Ceiling: unknown
Clouds: missing
Weather: BCFG  (patches of fog)

 AIRPORT MAP

 RUNWAY INFORMATION
Runway 02 Runway length 7874 ft Runway width 148 ft
Runway elevation 855 ft Runway displaced threshold 0 ft Runway heading 11
Runway 20 Runway length 7874 ft Runway width 148 ft
Runway elevation 829 ft Runway displaced threshold 0 ft Runway heading 191

 AIRPORT FREQUENCIES
Type APP Name SANTIAGO A Frequency 120.2 MHZ
Type GND Name GND Frequency 121.7 MHZ
Type TWR Name TWR Frequency 118.45 MHZ

 AIRPORT NEAR NAVIGATION AIDS
Type VOR-DME Name Vigo Frequency 113600 KHZ
Type NDB Name Vigo Frequency 345 KHZ
Type NDB Name Vigo Frequency 433 KHZ